sensor_id;sensor_type;location;lat;lon;timestamp;pressure;altitude;pressure_sealevel;temperature;humidity
43818;BME280;29868;47.360;18.984;2022-10-18T09:05:54;101619.41;;;17.04;100.00
43818;BME280;29868;47.360;18.984;2022-10-18T09:16:38;101611.91;;;17.50;100.00
43818;BME280;29868;47.360;18.984;2022-10-18T09:21:55;101606.09;;;17.89;100.00
43818;BME280;29868;47.360;18.984;2022-10-18T09:24:31;101602.63;;;17.98;100.00
43818;BME280;29868;47.360;18.984;2022-10-18T09:27:16;101603.50;;;18.03;100.00
43818;BME280;29868;47.360;18.984;2022-10-18T09:35:18;101601.84;;;18.20;100.00
43818;BME280;29868;47.360;18.984;2022-10-18T09:37:46;101599.13;;;18.02;99.29
43818;BME280;29868;47.360;18.984;2022-10-18T09:40:25;101594.84;;;18.26;98.90
43818;BME280;29868;47.360;18.984;2022-10-18T09:42:59;101588.72;;;18.33;93.59
43818;BME280;29868;47.360;18.984;2022-10-18T09:45:33;101593.94;;;18.20;97.56
43818;BME280;29868;47.360;18.984;2022-10-18T09:48:11;101590.47;;;18.28;95.04
43818;BME280;29868;47.360;18.984;2022-10-18T09:50:38;101591.38;;;18.39;92.77
43818;BME280;29868;47.360;18.984;2022-10-18T09:54:01;101580.91;;;18.57;90.97
43818;BME280;29868;47.360;18.984;2022-10-18T09:56:05;101580.09;;;18.72;91.17
43818;BME280;29868;47.360;18.984;2022-10-18T09:58:45;101575.72;;;18.76;90.69
43818;BME280;29868;47.360;18.984;2022-10-18T10:01:14;101573.06;;;18.79;86.46
43818;BME280;29868;47.360;18.984;2022-10-18T10:03:41;101564.31;;;18.87;85.49
43818;BME280;29868;47.360;18.984;2022-10-18T10:08:43;101560.81;;;18.94;84.22
43818;BME280;29868;47.360;18.984;2022-10-18T10:11:37;101556.44;;;19.10;78.16
43818;BME280;29868;47.360;18.984;2022-10-18T10:14:16;101551.13;;;19.09;71.39
43818;BME280;29868;47.360;18.984;2022-10-18T10:17:00;101556.44;;;19.10;68.35
43818;BME280;29868;47.360;18.984;2022-10-18T10:19:51;101545.88;;;19.16;68.87
43818;BME280;29868;47.360;18.984;2022-10-18T10:22:32;101537.09;;;19.22;68.59
43818;BME280;29868;47.360;18.984;2022-10-18T10:24:59;101534.47;;;19.19;66.50
43818;BME280;29868;47.360;18.984;2022-10-18T10:27:42;101531.81;;;19.36;67.10
43818;BME280;29868;47.360;18.984;2022-10-18T10:30:46;101527.41;;;19.36;67.74
43818;BME280;29868;47.360;18.984;2022-10-18T10:33:36;101532.69;;;19.44;65.35
43818;BME280;29868;47.360;18.984;2022-10-18T10:36:08;101519.50;;;19.41;64.00
43818;BME280;29868;47.360;18.984;2022-10-18T10:38:39;101519.50;;;19.38;65.07
43818;BME280;29868;47.360;18.984;2022-10-18T10:41:17;101508.94;;;19.62;64.37
43818;BME280;29868;47.360;18.984;2022-10-18T10:43:44;101512.38;;;19.83;63.66
43818;BME280;29868;47.360;18.984;2022-10-18T10:46:18;101505.41;;;19.63;58.58
43818;BME280;29868;47.360;18.984;2022-10-18T10:51:31;101498.34;;;19.78;59.89
43818;BME280;29868;47.360;18.984;2022-10-18T10:54:02;101493.97;;;19.66;59.48
43818;BME280;29868;47.360;18.984;2022-10-18T10:56:32;101490.38;;;19.84;59.45
43818;BME280;29868;47.360;18.984;2022-10-18T10:59:07;101484.22;;;19.86;59.16
43818;BME280;29868;47.360;18.984;2022-10-18T11:01:34;101489.44;;;20.00;57.19
43818;BME280;29868;47.360;18.984;2022-10-18T11:04:21;101478.03;;;19.97;56.99
43818;BME280;29868;47.360;18.984;2022-10-18T11:06:52;101478.00;;;20.04;56.79
43818;BME280;29868;47.360;18.984;2022-10-18T11:09:28;101462.13;;;20.12;56.71
43818;BME280;29868;47.360;18.984;2022-10-18T11:14:58;101459.34;;;20.32;57.52
43818;BME280;29868;47.360;18.984;2022-10-18T11:23:00;101454.78;;;20.55;52.79
43818;BME280;29868;47.360;18.984;2022-10-18T11:25:49;101452.19;;;20.49;52.01
43818;BME280;29868;47.360;18.984;2022-10-18T11:36:10;101435.47;;;20.52;51.92
43818;BME280;29868;47.360;18.984;2022-10-18T11:43:51;101429.22;;;20.60;50.49
43818;BME280;29868;47.360;18.984;2022-10-18T11:49:22;101418.44;;;20.88;52.02
43818;BME280;29868;47.360;18.984;2022-10-18T11:54:40;101407.72;;;21.00;52.80
43818;BME280;29868;47.360;18.984;2022-10-18T11:59:56;101407.59;;;21.12;50.14
43818;BME280;29868;47.360;18.984;2022-10-18T12:05:10;101398.63;;;21.26;50.21
43818;BME280;29868;47.360;18.984;2022-10-18T12:07:47;101383.63;;;21.29;49.52
43818;BME280;29868;47.360;18.984;2022-10-18T12:10:16;101380.97;;;21.28;49.43
43818;BME280;29868;47.360;18.984;2022-10-18T12:12:52;101375.66;;;21.31;49.66
43818;BME280;29868;47.360;18.984;2022-10-18T12:15:21;101372.97;;;21.37;48.62
43818;BME280;29868;47.360;18.984;2022-10-18T12:17:53;101363.44;;;21.21;48.80
43818;BME280;29868;47.360;18.984;2022-10-18T12:20:26;101363.34;;;21.30;49.15
43818;BME280;29868;47.360;18.984;2022-10-18T12:23:20;101361.53;;;21.35;50.13
43818;BME280;29868;47.360;18.984;2022-10-18T12:25:54;101363.16;;;21.47;49.45
43818;BME280;29868;47.360;18.984;2022-10-18T12:31:05;101356.28;;;21.29;48.33
43818;BME280;29868;47.360;18.984;2022-10-18T12:33:38;101350.34;;;21.14;47.43
43818;BME280;29868;47.360;18.984;2022-10-18T12:39:08;101337.84;;;21.26;48.14
43818;BME280;29868;47.360;18.984;2022-10-18T12:41:35;101342.19;;;21.31;48.85
43818;BME280;29868;47.360;18.984;2022-10-18T12:44:03;101338.69;;;21.28;47.50
43818;BME280;29868;47.360;18.984;2022-10-18T12:46:50;101342.28;;;21.25;47.40
43818;BME280;29868;47.360;18.984;2022-10-18T12:49:22;101332.56;;;21.26;46.29
43818;BME280;29868;47.360;18.984;2022-10-18T12:51:57;101330.03;;;21.17;46.14
43818;BME280;29868;47.360;18.984;2022-10-18T12:54:59;101327.16;;;21.38;46.51
43818;BME280;29868;47.360;18.984;2022-10-18T13:16:37;101295.94;;;21.65;44.53
43818;BME280;29868;47.360;18.984;2022-10-18T13:19:29;101292.38;;;21.66;44.79
43818;BME280;29868;47.360;18.984;2022-10-18T13:22:10;101288.75;;;21.73;45.46
43818;BME280;29868;47.360;18.984;2022-10-18T13:24:44;101289.94;;;21.53;44.10
43818;BME280;29868;47.360;18.984;2022-10-18T13:29:58;101288.22;;;21.49;44.73
43818;BME280;29868;47.360;18.984;2022-10-18T13:35:01;101286.38;;;21.56;45.43
43818;BME280;29868;47.360;18.984;2022-10-18T13:37:28;101285.59;;;21.48;45.08
43818;BME280;29868;47.360;18.984;2022-10-18T13:40:20;101281.19;;;21.47;44.05
43818;BME280;29868;47.360;18.984;2022-10-18T13:42:47;101289.97;;;21.52;44.41
43818;BME280;29868;47.360;18.984;2022-10-18T13:45:42;101289.81;;;21.61;45.36
43818;BME280;29868;47.360;18.984;2022-10-18T13:54:15;101280.50;;;21.35;44.61
43818;BME280;29868;47.360;18.984;2022-10-18T13:56:50;101276.97;;;21.35;45.76
43818;BME280;29868;47.360;18.984;2022-10-18T13:59:47;101270.03;;;21.26;44.57
43818;BME280;29868;47.360;18.984;2022-10-18T14:02:33;101269.13;;;21.27;45.51
43818;BME280;29868;47.360;18.984;2022-10-18T14:08:04;101256.06;;;21.17;45.44
43818;BME280;29868;47.360;18.984;2022-10-18T14:10:40;101255.22;;;21.14;44.98
43818;BME280;29868;47.360;18.984;2022-10-18T14:13:17;101249.00;;;21.17;45.17
43818;BME280;29868;47.360;18.984;2022-10-18T14:15:48;101248.00;;;21.24;46.54
43818;BME280;29868;47.360;18.984;2022-10-18T14:18:33;101252.69;;;21.05;45.74
43818;BME280;29868;47.360;18.984;2022-10-18T14:21:06;101245.72;;;20.98;45.84
43818;BME280;29868;47.360;18.984;2022-10-18T14:23:40;101242.41;;;20.82;47.23
43818;BME280;29868;47.360;18.984;2022-10-18T14:28:36;101240.06;;;20.61;47.37
43818;BME280;29868;47.360;18.984;2022-10-18T14:31:04;101240.94;;;20.60;47.87
43818;BME280;29868;47.360;18.984;2022-10-18T14:33:38;101235.88;;;20.38;48.76
43818;BME280;29868;47.360;18.984;2022-10-18T14:36:14;101230.81;;;20.17;50.29
43818;BME280;29868;47.360;18.984;2022-10-18T14:38:50;101232.66;;;20.07;49.95
43818;BME280;29868;47.360;18.984;2022-10-18T14:41:23;101233.66;;;19.96;51.05
43818;BME280;29868;47.360;18.984;2022-10-18T14:43:50;101229.41;;;19.79;50.91
43818;BME280;29868;47.360;18.984;2022-10-18T14:46:24;101218.91;;;19.75;50.95
43818;BME280;29868;47.360;18.984;2022-10-18T14:49:01;101218.97;;;19.65;51.18
43818;BME280;29868;47.360;18.984;2022-10-18T14:51:31;101218.19;;;19.51;52.19
43818;BME280;29868;47.360;18.984;2022-10-18T14:53:57;101214.81;;;19.29;53.16
43818;BME280;29868;47.360;18.984;2022-10-18T14:56:31;101212.19;;;19.29;52.92
43818;BME280;29868;47.360;18.984;2022-10-18T14:59:03;101201.81;;;19.06;53.22
43818;BME280;29868;47.360;18.984;2022-10-18T15:01:31;101212.38;;;18.97;53.28
43818;BME280;29868;47.360;18.984;2022-10-18T15:03:59;101195.78;;;18.81;54.97
43818;BME280;29868;47.360;18.984;2022-10-18T15:06:25;101192.31;;;18.79;54.87
43818;BME280;29868;47.360;18.984;2022-10-18T15:08:56;101194.97;;;18.71;55.08
43818;BME280;29868;47.360;18.984;2022-10-18T15:11:23;101195.00;;;18.48;55.74
43818;BME280;29868;47.360;18.984;2022-10-18T15:13:53;101195.09;;;18.24;56.30
43818;BME280;29868;47.360;18.984;2022-10-18T15:16:22;101199.53;;;18.01;57.75
43818;BME280;29868;47.360;18.984;2022-10-18T15:19:03;101196.03;;;17.82;58.56
43818;BME280;29868;47.360;18.984;2022-10-18T15:21:29;101193.38;;;17.66;60.92
43818;BME280;29868;47.360;18.984;2022-10-18T15:24:27;101191.63;;;17.42;61.66
43818;BME280;29868;47.360;18.984;2022-10-18T15:26:56;101184.63;;;17.27;61.79
43818;BME280;29868;47.360;18.984;2022-10-18T15:29:24;101177.59;;;17.13;63.53
43818;BME280;29868;47.360;18.984;2022-10-18T15:31:50;101186.28;;;16.96;64.50
43818;BME280;29868;47.360;18.984;2022-10-18T15:34:24;101172.25;;;16.81;68.89
43818;BME280;29868;47.360;18.984;2022-10-18T15:36:51;101177.38;;;16.59;70.77
43818;BME280;29868;47.360;18.984;2022-10-18T15:39:19;101177.28;;;16.36;72.51
43818;BME280;29868;47.360;18.984;2022-10-18T15:41:53;101175.41;;;16.14;76.76
43818;BME280;29868;47.360;18.984;2022-10-18T15:47:18;101161.13;;;15.67;90.29
43818;BME280;29868;47.360;18.984;2022-10-18T15:49:49;101165.22;;;15.36;100.00
43818;BME280;29868;47.360;18.984;2022-10-18T15:52:41;101162.47;;;15.19;100.00
43818;BME280;29868;47.360;18.984;2022-10-18T15:58:02;101162.91;;;14.78;100.00
43818;BME280;29868;47.360;18.984;2022-10-18T16:00:28;101164.44;;;14.61;100.00
43818;BME280;29868;47.360;18.984;2022-10-18T16:02:53;101168.66;;;14.50;100.00
43818;BME280;29868;47.360;18.984;2022-10-18T16:05:18;101163.19;;;14.34;100.00
43818;BME280;29868;47.360;18.984;2022-10-18T16:07:50;101165.66;;;14.24;100.00
43818;BME280;29868;47.360;18.984;2022-10-18T16:10:15;101157.03;;;14.31;100.00
43818;BME280;29868;47.360;18.984;2022-10-18T16:12:41;101160.13;;;14.01;100.00
43818;BME280;29868;47.360;18.984;2022-10-18T16:15:07;101162.38;;;13.76;100.00
43818;BME280;29868;47.360;18.984;2022-10-18T16:17:32;101163.44;;;13.89;100.00
43818;BME280;29868;47.360;18.984;2022-10-18T16:19:58;101156.91;;;13.61;100.00
43818;BME280;29868;47.360;18.984;2022-10-18T16:22:23;101156.59;;;13.43;100.00
43818;BME280;29868;47.360;18.984;2022-10-18T16:24:49;101158.16;;;13.31;100.00
43818;BME280;29868;47.360;18.984;2022-10-18T16:27:14;101159.75;;;13.23;100.00
43818;BME280;29868;47.360;18.984;2022-10-18T16:29:40;101164.75;;;13.14;100.00
43818;BME280;29868;47.360;18.984;2022-10-18T16:32:06;101172.56;;;13.11;100.00
43818;BME280;29868;47.360;18.984;2022-10-18T16:34:31;101172.31;;;12.99;100.00
43818;BME280;29868;47.360;18.984;2022-10-18T16:36:56;101168.72;;;12.92;100.00
43818;BME280;29868;47.360;18.984;2022-10-18T16:39:22;101160.78;;;12.87;100.00
43818;BME280;29868;47.360;18.984;2022-10-18T16:41:48;101158.00;;;12.77;100.00
43818;BME280;29868;47.360;18.984;2022-10-18T16:44:14;101160.41;;;12.66;100.00
43818;BME280;29868;47.360;18.984;2022-10-18T16:46:41;101167.22;;;12.61;100.00
43818;BME280;29868;47.360;18.984;2022-10-18T16:49:18;101160.13;;;12.54;100.00
43818;BME280;29868;47.360;18.984;2022-10-18T16:51:43;101166.91;;;12.44;100.00
43818;BME280;29868;47.360;18.984;2022-10-18T16:54:09;101168.41;;;12.34;100.00
43818;BME280;29868;47.360;18.984;2022-10-18T16:56:34;101163.16;;;12.31;100.00
43818;BME280;29868;47.360;18.984;2022-10-18T16:59:00;101163.03;;;12.25;100.00
43818;BME280;29868;47.360;18.984;2022-10-18T17:01:26;101168.03;;;12.16;100.00
43818;BME280;29868;47.360;18.984;2022-10-18T17:03:52;101159.31;;;12.14;100.00
43818;BME280;29868;47.360;18.984;2022-10-18T17:06:26;101158.25;;;12.06;100.00
43818;BME280;29868;47.360;18.984;2022-10-18T17:08:53;101148.69;;;12.05;100.00
43818;BME280;29868;47.360;18.984;2022-10-18T17:11:20;101163.41;;;12.04;100.00
43818;BME280;29868;47.360;18.984;2022-10-18T17:13:45;101157.25;;;12.01;100.00
43818;BME280;29868;47.360;18.984;2022-10-18T17:16:27;101161.25;;;11.85;100.00
43818;BME280;29868;47.360;18.984;2022-10-18T17:18:57;101157.63;;;11.80;100.00
43818;BME280;29868;47.360;18.984;2022-10-18T17:21:24;101155.75;;;11.74;100.00
43818;BME280;29868;47.360;18.984;2022-10-18T17:23:50;101154.69;;;11.66;100.00
43818;BME280;29868;47.360;18.984;2022-10-18T17:26:18;101165.75;;;11.56;100.00
43818;BME280;29868;47.360;18.984;2022-10-18T17:28:44;101171.75;;;11.55;100.00
43818;BME280;29868;47.360;18.984;2022-10-18T17:31:10;101167.44;;;11.55;100.00
43818;BME280;29868;47.360;18.984;2022-10-18T17:33:35;101167.59;;;11.61;100.00
43818;BME280;29868;47.360;18.984;2022-10-18T17:36:01;101172.09;;;11.67;100.00
43818;BME280;29868;47.360;18.984;2022-10-18T17:38:27;101170.38;;;11.69;100.00
43818;BME280;29868;47.360;18.984;2022-10-18T17:40:52;101174.72;;;11.68;100.00
43818;BME280;29868;47.360;18.984;2022-10-18T17:43:18;101166.72;;;11.61;100.00
43818;BME280;29868;47.360;18.984;2022-10-18T17:45:47;101158.72;;;11.53;100.00
43818;BME280;29868;47.360;18.984;2022-10-18T17:48:13;101149.56;;;11.69;100.00
43818;BME280;29868;47.360;18.984;2022-10-18T17:50:40;101156.84;;;11.82;100.00
43818;BME280;29868;47.360;18.984;2022-10-18T17:53:05;101157.97;;;11.57;100.00
43818;BME280;29868;47.360;18.984;2022-10-18T17:55:32;101155.84;;;11.42;100.00
43818;BME280;29868;47.360;18.984;2022-10-18T17:57:58;101155.84;;;11.42;100.00
43818;BME280;29868;47.360;18.984;2022-10-18T18:00:23;101144.47;;;11.37;100.00
43818;BME280;29868;47.360;18.984;2022-10-18T18:02:49;101144.16;;;11.25;100.00
43818;BME280;29868;47.360;18.984;2022-10-18T18:05:14;101152.16;;;11.33;100.00
43818;BME280;29868;47.360;18.984;2022-10-18T18:07:39;101142.78;;;11.39;100.00
43818;BME280;29868;47.360;18.984;2022-10-18T18:10:05;101148.81;;;11.38;100.00
43818;BME280;29868;47.360;18.984;2022-10-18T18:12:30;101142.44;;;11.26;100.00
43818;BME280;29868;47.360;18.984;2022-10-18T18:14:56;101141.56;;;11.25;100.00
43818;BME280;29868;47.360;18.984;2022-10-18T18:17:21;101146.72;;;11.24;100.00
43818;BME280;29868;47.360;18.984;2022-10-18T18:19:47;101144.16;;;11.25;100.00
43818;BME280;29868;47.360;18.984;2022-10-18T18:22:12;101146.03;;;11.31;100.00
43818;BME280;29868;47.360;18.984;2022-10-18T18:24:38;101146.69;;;11.22;100.00
43818;BME280;29868;47.360;18.984;2022-10-18T18:27:03;101144.16;;;11.25;100.00
43818;BME280;29868;47.360;18.984;2022-10-18T18:29:29;101145.03;;;11.26;100.00
43818;BME280;29868;47.360;18.984;2022-10-18T18:31:54;101140.47;;;11.17;100.00
43818;BME280;29868;47.360;18.984;2022-10-18T18:34:20;101142.09;;;11.12;100.00
43818;BME280;29868;47.360;18.984;2022-10-18T18:36:47;101137.47;;;11.02;100.00
43818;BME280;29868;47.360;18.984;2022-10-18T18:39:21;101132.28;;;11.02;100.00
43818;BME280;29868;47.360;18.984;2022-10-18T18:41:48;101128.88;;;11.04;100.00
43818;BME280;29868;47.360;18.984;2022-10-18T18:44:15;101122.53;;;10.93;100.00
43818;BME280;29868;47.360;18.984;2022-10-18T18:46:40;101128.38;;;10.84;100.00
43818;BME280;29868;47.360;18.984;2022-10-18T18:49:06;101126.44;;;10.77;100.00
43818;BME280;29868;47.360;18.984;2022-10-18T18:51:33;101133.94;;;10.66;100.00
43818;BME280;29868;47.360;18.984;2022-10-18T18:54:01;101133.16;;;10.69;100.00
43818;BME280;29868;47.360;18.984;2022-10-18T18:56:28;101128.09;;;10.75;100.00
43818;BME280;29868;47.360;18.984;2022-10-18T18:58:54;101122.09;;;10.76;100.00
43818;BME280;29868;47.360;18.984;2022-10-18T19:01:23;101117.41;;;10.64;100.00
43818;BME280;29868;47.360;18.984;2022-10-18T19:03:51;101108.44;;;10.85;100.00
43818;BME280;29868;47.360;18.984;2022-10-18T19:06:31;101112.69;;;10.81;100.00
43818;BME280;29868;47.360;18.984;2022-10-18T19:08:58;101106.13;;;10.62;100.00
43818;BME280;29868;47.360;18.984;2022-10-18T19:11:28;101109.38;;;10.55;100.00
43818;BME280;29868;47.360;18.984;2022-10-18T19:13:54;101110.97;;;10.50;100.00
43818;BME280;29868;47.360;18.984;2022-10-18T19:18:59;101108.59;;;10.28;100.00
43818;BME280;29868;47.360;18.984;2022-10-18T19:21:28;101105.94;;;10.26;100.00
43818;BME280;29868;47.360;18.984;2022-10-18T19:23:54;101107.88;;;10.33;100.00
43818;BME280;29868;47.360;18.984;2022-10-18T19:26:25;101104.53;;;10.37;100.00
43818;BME280;29868;47.360;18.984;2022-10-18T19:28:50;101095.84;;;10.35;100.00
43818;BME280;29868;47.360;18.984;2022-10-18T19:31:16;101095.72;;;10.31;100.00
43818;BME280;29868;47.360;18.984;2022-10-18T19:33:41;101099.94;;;10.27;100.00
43818;BME280;29868;47.360;18.984;2022-10-18T19:36:07;101097.41;;;10.30;100.00
43818;BME280;29868;47.360;18.984;2022-10-18T19:38:32;101091.09;;;10.22;100.00
43818;BME280;29868;47.360;18.984;2022-10-18T19:40:58;101096.50;;;10.28;100.00
43818;BME280;29868;47.360;18.984;2022-10-18T19:43:23;101089.59;;;10.29;100.00
43818;BME280;29868;47.360;18.984;2022-10-18T19:45:49;101097.03;;;10.18;100.00
43818;BME280;29868;47.360;18.984;2022-10-18T19:48:14;101099.94;;;10.27;100.00
43818;BME280;29868;47.360;18.984;2022-10-18T19:50:40;101112.28;;;10.34;100.00
43818;BME280;29868;47.360;18.984;2022-10-18T19:53:05;101101.69;;;10.28;100.00
43818;BME280;29868;47.360;18.984;2022-10-18T19:55:32;101108.69;;;10.31;100.00
43818;BME280;29868;47.360;18.984;2022-10-18T19:57:58;101100.59;;;10.21;100.00
43818;BME280;29868;47.360;18.984;2022-10-18T20:00:23;101095.38;;;10.20;100.00
43818;BME280;29868;47.360;18.984;2022-10-18T20:02:48;101088.16;;;10.10;100.00
43818;BME280;29868;47.360;18.984;2022-10-18T20:05:14;101091.38;;;10.03;100.00
43818;BME280;29868;47.360;18.984;2022-10-18T20:07:39;101087.00;;;10.00;100.00
43818;BME280;29868;47.360;18.984;2022-10-18T20:10:07;101086.47;;;10.12;100.00
43818;BME280;29868;47.360;18.984;2022-10-18T20:12:33;101092.00;;;9.94;100.00
43818;BME280;29868;47.360;18.984;2022-10-18T20:15:00;101086.91;;;9.97;100.00
43818;BME280;29868;47.360;18.984;2022-10-18T20:17:25;101090.38;;;9.97;100.00
43818;BME280;29868;47.360;18.984;2022-10-18T20:19:51;101079.06;;;9.95;100.00
43818;BME280;29868;47.360;18.984;2022-10-18T20:22:16;101070.94;;;9.85;100.00
43818;BME280;29868;47.360;18.984;2022-10-18T20:24:41;101083.13;;;9.86;100.00
43818;BME280;29868;47.360;18.984;2022-10-18T20:27:07;101080.97;;;9.72;100.00
43818;BME280;29868;47.360;18.984;2022-10-18T20:29:32;101078.59;;;9.80;100.00
43818;BME280;29868;47.360;18.984;2022-10-18T20:31:59;101088.75;;;9.72;100.00
43818;BME280;29868;47.360;18.984;2022-10-18T20:34:25;101081.84;;;9.73;100.00
43818;BME280;29868;47.360;18.984;2022-10-18T20:36:53;101081.69;;;9.67;100.00
43818;BME280;29868;47.360;18.984;2022-10-18T20:39:19;101089.22;;;9.59;100.00
43818;BME280;29868;47.360;18.984;2022-10-18T20:41:44;101084.84;;;9.58;100.00
43818;BME280;29868;47.360;18.984;2022-10-18T20:44:12;101087.50;;;9.60;100.00
43818;BME280;29868;47.360;18.984;2022-10-18T20:46:38;101079.53;;;9.54;100.00
43818;BME280;29868;47.360;18.984;2022-10-18T20:49:06;101079.28;;;9.46;100.00
43818;BME280;29868;47.360;18.984;2022-10-18T20:51:31;101078.53;;;9.50;100.00
43818;BME280;29868;47.360;18.984;2022-10-18T20:53:58;101077.00;;;9.55;100.00
43818;BME280;29868;47.360;18.984;2022-10-18T20:56:24;101070.09;;;9.56;100.00
43818;BME280;29868;47.360;18.984;2022-10-18T20:58:54;101068.06;;;9.74;100.00
43818;BME280;29868;47.360;18.984;2022-10-18T21:01:28;101065.81;;;9.86;100.00
43818;BME280;29868;47.360;18.984;2022-10-18T21:03:55;101063.97;;;9.54;100.00
43818;BME280;29868;47.360;18.984;2022-10-18T21:08:53;101057.28;;;9.33;100.00
43818;BME280;29868;47.360;18.984;2022-10-18T21:11:19;101062.41;;;9.32;100.00
43818;BME280;29868;47.360;18.984;2022-10-18T21:13:49;101060.72;;;9.32;100.00
43818;BME280;29868;47.360;18.984;2022-10-18T21:16:14;101061.63;;;9.34;100.00
43818;BME280;29868;47.360;18.984;2022-10-18T21:18:40;101054.78;;;9.36;100.00
43818;BME280;29868;47.360;18.984;2022-10-18T21:21:17;101053.72;;;9.30;100.00
43818;BME280;29868;47.360;18.984;2022-10-18T21:23:43;101056.25;;;9.28;100.00
43818;BME280;29868;47.360;18.984;2022-10-18T21:26:26;101054.81;;;9.38;100.00
43818;BME280;29868;47.360;18.984;2022-10-18T21:28:53;101058.91;;;9.30;100.00
43818;BME280;29868;47.360;18.984;2022-10-18T21:31:21;101057.03;;;9.25;100.00
43818;BME280;29868;47.360;18.984;2022-10-18T21:33:51;101049.19;;;9.24;100.00
43818;BME280;29868;47.360;18.984;2022-10-18T21:36:17;101055.75;;;9.13;100.00
43818;BME280;29868;47.360;18.984;2022-10-18T21:38:43;101047.06;;;9.11;100.00
43818;BME280;29868;47.360;18.984;2022-10-18T21:41:14;101050.56;;;9.13;100.00
43818;BME280;29868;47.360;18.984;2022-10-18T21:43:46;101043.84;;;9.18;100.00
43818;BME280;29868;47.360;18.984;2022-10-18T21:46:13;101039.16;;;9.35;100.00
43818;BME280;29868;47.360;18.984;2022-10-18T21:48:42;101039.50;;;9.17;100.00
43818;BME280;29868;47.360;18.984;2022-10-18T21:51:08;101026.81;;;9.26;100.00
43818;BME280;29868;47.360;18.984;2022-10-18T21:53:35;101029.81;;;9.13;100.00
43818;BME280;29868;47.360;18.984;2022-10-18T21:56:10;101020.94;;;9.05;100.00
43818;BME280;29868;47.360;18.984;2022-10-18T21:58:36;101015.19;;;9.13;100.00
43818;BME280;29868;47.360;18.984;2022-10-18T22:01:08;101012.41;;;9.09;100.00
43818;BME280;29868;47.360;18.984;2022-10-18T22:03:35;101007.34;;;9.12;100.00
43818;BME280;29868;47.360;18.984;2022-10-18T22:06:03;101007.34;;;9.12;100.00
43818;BME280;29868;47.360;18.984;2022-10-18T22:08:29;101013.41;;;9.12;100.00
43818;BME280;29868;47.360;18.984;2022-10-18T22:10:58;101010.88;;;9.42;100.00
43818;BME280;29868;47.360;18.984;2022-10-18T22:13:23;101010.28;;;9.22;100.00
43818;BME280;29868;47.360;18.984;2022-10-18T22:15:49;101014.59;;;9.22;100.00
43818;BME280;29868;47.360;18.984;2022-10-18T22:18:14;101011.25;;;9.26;100.00
43818;BME280;29868;47.360;18.984;2022-10-18T22:20:40;101007.97;;;9.32;100.00
43818;BME280;29868;47.360;18.984;2022-10-18T22:23:05;101012.47;;;9.37;100.00
43818;BME280;29868;47.360;18.984;2022-10-18T22:25:34;101005.69;;;9.42;100.00
43818;BME280;29868;47.360;18.984;2022-10-18T22:28:00;101012.09;;;9.54;100.00
43818;BME280;29868;47.360;18.984;2022-10-18T22:30:25;101004.13;;;9.76;100.00
43818;BME280;29868;47.360;18.984;2022-10-18T22:32:50;100999.06;;;9.81;100.00
43818;BME280;29868;47.360;18.984;2022-10-18T22:35:16;100990.38;;;9.79;100.00
43818;BME280;29868;47.360;18.984;2022-10-18T22:37:41;100997.28;;;9.78;100.00
43818;BME280;29868;47.360;18.984;2022-10-18T22:40:07;100999.88;;;9.78;100.00
43818;BME280;29868;47.360;18.984;2022-10-18T22:42:33;100996.56;;;9.84;100.00
43818;BME280;29868;47.360;18.984;2022-10-18T22:44:58;100992.06;;;10.08;100.00
43818;BME280;29868;47.360;18.984;2022-10-18T22:47:23;100984.88;;;9.99;100.00
43818;BME280;29868;47.360;18.984;2022-10-18T22:49:49;100989.16;;;9.97;100.00
43818;BME280;29868;47.360;18.984;2022-10-18T22:52:14;100989.72;;;9.87;100.00
43818;BME280;29868;47.360;18.984;2022-10-18T22:54:40;100986.13;;;9.82;100.00
43818;BME280;29868;47.360;18.984;2022-10-18T22:57:05;100994.81;;;9.84;100.00
43818;BME280;29868;47.360;18.984;2022-10-18T22:59:31;100994.06;;;9.87;100.00
43818;BME280;29868;47.360;18.984;2022-10-18T23:01:56;100988.41;;;10.02;100.00
43818;BME280;29868;47.360;18.984;2022-10-18T23:04:21;100985.72;;;9.98;100.00
43818;BME280;29868;47.360;18.984;2022-10-18T23:06:46;100989.19;;;9.99;100.00
43818;BME280;29868;47.360;18.984;2022-10-18T23:09:12;100983.47;;;10.11;100.00
43818;BME280;29868;47.360;18.984;2022-10-18T23:11:37;100989.75;;;10.19;100.00
43818;BME280;29868;47.360;18.984;2022-10-18T23:14:04;100997.31;;;10.41;100.00
43818;BME280;29868;47.360;18.984;2022-10-18T23:16:30;100992.50;;;10.57;100.00
43818;BME280;29868;47.360;18.984;2022-10-18T23:18:57;100982.38;;;10.66;100.00
43818;BME280;29868;47.360;18.984;2022-10-18T23:21:24;100982.31;;;10.64;100.00
43818;BME280;29868;47.360;18.984;2022-10-18T23:23:51;100990.75;;;10.56;100.00
43818;BME280;29868;47.360;18.984;2022-10-18T23:26:20;100982.44;;;10.69;100.00
43818;BME280;29868;47.360;18.984;2022-10-18T23:28:47;100978.84;;;10.64;100.00
43818;BME280;29868;47.360;18.984;2022-10-18T23:31:16;100973.69;;;10.65;100.00
43818;BME280;29868;47.360;18.984;2022-10-18T23:33:46;100965.97;;;10.68;100.00
43818;BME280;29868;47.360;18.984;2022-10-18T23:36:12;100969.78;;;10.83;100.00
43818;BME280;29868;47.360;18.984;2022-10-18T23:38:38;100968.13;;;10.86;100.00
43818;BME280;29868;47.360;18.984;2022-10-18T23:41:05;100964.38;;;10.75;100.00